Flight Track Log - Related Links

Times and Time Zones

All times are in EDT time to prevent confusion due to time zone crossing. See the SKW6345 flight status page for this flight to view local times or setup timezone preferences in your user account.

Time Position Orientation Groundspeed Altitude Reporting Facility
EDT Latitude Longitude Course Direction KTS MPH feet Rate Location/Type
Mon 01:59:00 PM 45.7113 -111.3793 278° West  Level FlightAware Approximate
Mon 01:59:24 PM 45.7031 -111.2014 236° Southwest 245 282 7,700  Level Salt Lake Center
Mon 02:00:00 PM 45.7310 -111.5339 282° West  Level FlightAware Approximate
Mon 02:00:26 PM 45.7100 -111.3094 275° West 265 305 9,600  Level Salt Lake Center
Mon 02:01:00 PM 45.7455 -111.6880 288° West  Level FlightAware Approximate
Mon 02:01:28 PM 45.7203 -111.4244 277° West 279 321 11,400  Level Salt Lake Center
Mon 02:02:00 PM 45.7788 -111.8378 288° West  Level FlightAware Approximate
Mon 02:02:30 PM 45.6836 -111.5292 243° Southwest 295 339 13,200  Level Salt Lake Center
Mon 02:03:00 PM 45.8134 -111.9871 290° West  Level FlightAware Approximate
Mon 02:03:32 PM 45.6358 -111.6311 236° Southwest 306 352 15,100  Level Salt Lake Center
Mon 02:04:34 PM 45.5889 -111.7378 238° Southwest 314 361 16,700 1,403 Climbing Salt Lake Center
Mon 02:05:36 PM 45.5392 -111.8483 237° Southwest 326 375 18,000 1,597 Climbing Salt Lake Center
Mon 02:06:38 PM 45.4814 -111.9825 238° Southwest 330 380 20,000 1,452 Climbing Salt Lake Center
Mon 02:07:40 PM 45.4311 -112.0956 238° Southwest 336 387 21,000 1,016 Climbing Salt Lake Center
Mon 02:08:42 PM 45.3789 -112.2125 238° Southwest 348 400 22,100 1,355 Climbing Salt Lake Center
Mon 02:09:44 PM 45.3214 -112.3397 237° Southwest 350 403 23,800 1,306 Climbing Salt Lake Center
Mon 02:10:46 PM 45.2717 -112.4500 237° Southwest 346 398 24,800 968 Climbing Salt Lake Center
Mon 02:11:48 PM 45.2136 -112.5792 237° Southwest 348 400 25,800 823 Climbing Salt Lake Center
Mon 02:12:50 PM 45.1622 -112.6922 237° Southwest 354 407 26,500 677 Climbing Salt Lake Center
Mon 02:13:52 PM 45.1092 -112.8078 237° Southwest 362 417 27,200 726 Climbing Salt Lake Center
Mon 02:14:54 PM 45.0483 -112.9436 238° Southwest 368 423 28,000 726 Climbing Salt Lake Center
Mon 02:15:56 PM 44.9953 -113.0597 237° Southwest 367 422 28,700 672 Climbing Salt Lake Center
Mon 02:16:59 PM 44.9311 -113.1961 236° Southwest 373 429 29,400 576 Climbing Salt Lake Center
Mon 02:18:01 PM 44.8764 -113.3136 237° Southwest 374 430 29,900 532 Climbing Salt Lake Center
Mon 02:19:03 PM 44.8131 -113.4525 237° Southwest 378 435 30,500 532 Climbing Salt Lake Center
Mon 02:20:05 PM 44.7572 -113.5700 236° Southwest 377 434 31,000 532 Climbing Salt Lake Center
Mon 02:21:07 PM 44.6928 -113.7100 237° Southwest 380 437 31,600 484 Climbing Salt Lake Center
Mon 02:22:09 PM 44.6353 -113.8281 236° Southwest 382 440 32,000 194 Climbing Salt Lake Center
Mon 02:23:11 PM 44.5706 -113.9683 237° Southwest 384 442 32,000  Level Salt Lake Center
Mon 02:24:13 PM 44.5153 -114.0864 237° Southwest 381 438 32,000  Level Salt Lake Center
Mon 02:25:15 PM 44.4517 -114.2250 237° Southwest 380 437 32,000  Level Salt Lake Center
Mon 02:26:17 PM 44.3939 -114.3425 235° Southwest 380 437 32,000  Level Salt Lake Center
Mon 02:27:19 PM 44.3275 -114.4789 236° Southwest 380 437 32,000  Level Salt Lake Center
Mon 02:28:21 PM 44.2706 -114.5942 235° Southwest 378 435 32,000  Level Salt Lake Center
Mon 02:29:23 PM 44.2047 -114.7300 236° Southwest 378 435 32,000  Level Salt Lake Center
Mon 02:30:25 PM 44.1481 -114.8450 236° Southwest 377 434 32,000  Level Salt Lake Center
Mon 02:31:27 PM 44.0914 -114.9631 236° Southwest 380 437 32,000  Level Salt Lake Center
Mon 02:32:29 PM 44.0206 -115.1019 235° Southwest 392 451 32,000  Level Salt Lake Center
Mon 02:33:31 PM 43.9617 -115.2211 236° Southwest 389 448 32,000  Level Salt Lake Center
Mon 02:34:33 PM 43.8928 -115.3594 235° Southwest 389 448 32,000  Level Salt Lake Center
Mon 02:35:35 PM 43.8339 -115.4786 236° Southwest 389 448 32,000  Level Salt Lake Center
Mon 02:36:37 PM 43.7647 -115.6164 235° Southwest 387 445 32,000  Level Salt Lake Center
Mon 02:37:39 PM 43.7064 -115.7339 236° Southwest 385 443 32,000  Level Salt Lake Center
Mon 02:38:41 PM 43.6369 -115.8711 235° Southwest 386 444 32,000  Level Salt Lake Center
Mon 02:39:43 PM 43.5792 -115.9858 235° Southwest 380 437 32,000  Level Salt Lake Center
Mon 02:40:45 PM 43.5214 -116.0992 235° Southwest 377 434 32,000  Level Salt Lake Center
Mon 02:41:47 PM 43.4536 -116.2306 235° Southwest 376 433 32,000  Level Salt Lake Center
Mon 02:42:49 PM 43.3961 -116.3425 235° Southwest 373 429 32,000  Level Salt Lake Center
Mon 02:43:51 PM 43.3286 -116.4742 235° Southwest 376 433 32,000  Level Salt Lake Center
Mon 02:44:53 PM 43.2697 -116.5864 234° Southwest 379 436 32,000  Level Salt Lake Center
Mon 02:45:55 PM 43.2011 -116.7175 234° Southwest 378 435 32,000  Level Salt Lake Center
Mon 02:46:57 PM 43.1428 -116.8306 235° Southwest 377 434 32,000  Level Salt Lake Center
Mon 02:47:59 PM 43.0736 -116.9617 234° Southwest 381 438 32,000  Level Salt Lake Center
Mon 02:49:01 PM 43.0144 -117.0736 234° Southwest 378 435 32,000  Level Salt Lake Center
Mon 02:50:03 PM 42.9450 -117.2056 234° Southwest 380 437 32,000  Level Salt Lake Center
Mon 02:51:05 PM 42.8850 -117.3183 234° Southwest 382 440 32,000  Level Salt Lake Center
Mon 02:52:08 PM 42.8242 -117.4300 233° Southwest 384 442 32,000  Level Salt Lake Center
Mon 02:53:10 PM 42.7558 -117.5608 235° Southwest 379 436 32,000  Level Salt Lake Center
Mon 02:54:12 PM 42.6972 -117.6711 234° Southwest 376 433 32,000  Level Salt Lake Center
Mon 02:55:14 PM 42.6281 -117.7975 233° Southwest 373 429 32,000  Level Salt Lake Center
Mon 02:56:16 PM 42.5561 -117.8878 223° Southwest 372 428 32,000  Level Salt Lake Center
Mon 02:57:18 PM 42.4519 -117.9525 205° Southwest 370 426 32,000  Level Salt Lake Center
Mon 02:58:20 PM 42.3606 -118.0097 205° Southwest 376 433 32,000  Level Salt Lake Center
Mon 02:59:22 PM 42.2544 -118.0736 204° Southwest 376 433 32,000  Level Salt Lake Center
Mon 03:00:24 PM 42.1658 -118.1272 204° Southwest 376 433 32,000  Level Salt Lake Center
Mon 03:01:26 PM 42.0586 -118.1917 204° Southwest 378 435 32,000  Level Salt Lake Center
Mon 03:02:28 PM 41.9667 -118.2481 205° Southwest 379 436 32,000  Level Salt Lake Center
Mon 03:03:30 PM 41.8575 -118.3133 204° Southwest 384 442 32,000  Level Salt Lake Center
Mon 03:04:32 PM 41.7644 -118.3703 205° Southwest 385 443 32,000  Level Salt Lake Center
Mon 03:05:34 PM 41.6569 -118.4331 204° Southwest 379 436 32,000  Level Salt Lake Center
Mon 03:06:36 PM 41.5642 -118.4894 204° Southwest 383 441 32,000  Level Salt Lake Center
Mon 03:07:38 PM 41.4575 -118.5522 204° Southwest 377 434 32,000  Level Salt Lake Center
Mon 03:08:40 PM 41.3658 -118.6061 204° Southwest 376 433 32,000  Level Salt Lake Center
Mon 03:09:42 PM 41.2600 -118.6675 204° Southwest 374 430 32,000  Level Salt Lake Center
Mon 03:10:44 PM 41.1692 -118.7222 204° Southwest 373 429 32,000  Level Salt Lake Center
Mon 03:11:46 PM 41.0622 -118.7850 204° Southwest 376 433 32,000  Level Salt Lake Center
Mon 03:12:48 PM 40.9703 -118.8372 203° Southwest 377 434 32,000  Level Salt Lake Center
Mon 03:13:50 PM 40.8789 -118.8925 205° Southwest 377 434 32,000  Level Salt Lake Center
Mon 03:14:05 PM 40.8533 -118.9164 215° Southwest 376 433 32,000  Level Oakland Center
Mon 03:15:06 PM 40.7853 -119.0164 228° Southwest 378 435 32,000  Level Oakland Center
Mon 03:16:08 PM 40.7156 -119.1189 228° Southwest 379 436 32,000  Level Oakland Center
Mon 03:17:09 PM 40.6317 -119.2458 229° Southwest 380 437 32,000  Level Oakland Center
Mon 03:18:11 PM 40.5622 -119.3497 229° Southwest 380 437 32,000  Level Oakland Center
Mon 03:19:12 PM 40.4967 -119.4506 229° Southwest 369 425 32,000  Level Oakland Center
Mon 03:20:14 PM 40.4286 -119.5506 228° Southwest 368 423 32,000  Level Oakland Center
Mon 03:21:15 PM 40.3606 -119.6522 229° Southwest 370 426 32,000  Level Oakland Center
Mon 03:22:17 PM 40.2914 -119.7528 228° Southwest 371 427 32,000  Level Oakland Center
Mon 03:23:18 PM 40.2225 -119.8550 229° Southwest 374 430 32,000  Level Oakland Center
Mon 03:24:20 PM 40.1397 -119.9767 228° Southwest 375 432 32,000  Level Oakland Center
Mon 03:25:21 PM 40.0708 -120.0786 229° Southwest 376 433 32,000  Level Oakland Center
Mon 03:26:23 PM 39.9997 -120.1803 228° Southwest 372 428 32,000  Level Oakland Center
Mon 03:27:25 PM 39.9317 -120.2811 229° Southwest 369 425 32,000  Level Oakland Center
Mon 03:28:26 PM 39.8631 -120.3803 228° Southwest 370 426 32,000  Level Oakland Center
Mon 03:29:28 PM 39.7922 -120.4822 228° Southwest 378 435 32,000  Level Oakland Center
Mon 03:30:29 PM 39.7197 -120.5856 228° Southwest 384 442 32,000  Level Oakland Center
Mon 03:31:31 PM 39.6472 -120.6914 228° Southwest 392 451 32,000  Level Oakland Center
Mon 03:32:32 PM 39.5719 -120.7978 227° Southwest 399 459 32,000  Level Oakland Center
Mon 03:33:34 PM 39.4819 -120.9283 228° Southwest 405 466 32,000  Level Oakland Center
Mon 03:34:36 PM 39.4061 -121.0358 228° Southwest 406 467 32,000  Level Oakland Center
Mon 03:35:37 PM 39.3292 -121.1433 227° Southwest 407 468 32,000  Level Oakland Center
Mon 03:36:39 PM 39.2522 -121.2514 227° Southwest 409 471 32,000  Level Oakland Center
Mon 03:37:40 PM 39.1758 -121.3611 228° Southwest 411 473 32,000  Level Oakland Center
Mon 03:38:42 PM 39.0989 -121.4689 227° Southwest 411 473 32,000  Level Oakland Center
Mon 03:39:43 PM 39.0217 -121.5767 227° Southwest 411 473 32,000  Level Oakland Center
Mon 03:40:45 PM 38.9300 -121.7081 228° Southwest 414 476 32,000  Level Oakland Center
Mon 03:41:46 PM 38.8525 -121.8158 227° Southwest 414 476 32,000 -439 Level Oakland Center
Mon 03:42:48 PM 38.7569 -121.9064 216° Southwest 436 502 31,100 -927 Descending Oakland Center
Mon 03:43:49 PM 38.6661 -121.9864 215° Southwest 437 503 30,100 -1,902 Descending Oakland Center
Mon 03:44:51 PM 38.5506 -122.0917 215° Southwest 424 488 27,200 -2,585 Descending Oakland Center
Mon 03:45:52 PM 38.4556 -122.1772 215° Southwest 417 480 24,800 -2,341 Descending Oakland Center
Mon 03:46:54 PM 38.3633 -122.2611 216° Southwest 407 468 22,400 -2,341 Descending Oakland Center
Mon 03:47:55 PM 38.2744 -122.3397 215° Southwest 391 450 20,000 -2,293 Descending Oakland Center
Mon 03:48:57 PM 38.1894 -122.4161 215° Southwest 377 434 17,700 -2,244 Descending Oakland Center
Mon 03:49:58 PM 38.1061 -122.4897 215° Southwest 367 422 15,400 -2,195 Descending Oakland Center
Mon 03:51:00 PM 38.0269 -122.5611 215° Southwest 353 406 13,200 -2,049 Descending Oakland Center
Mon 03:52:01 PM 37.9361 -122.6425 215° Southwest 349 402 11,200 -1,082 Descending Oakland Center
Mon 03:53:02 PM 37.8489 -122.6192 168° South 361 415 11,000 -141 Descending Oakland Center
Mon 03:53:26 PM 37.8167 -122.5833 139° Southeast 359 413 11,000  Level Northern Cal TRACON
Mon 03:54:26 PM 37.7500 -122.5167 142° Southeast 274 315 11,000  Level Northern Cal TRACON
Mon 03:55:26 PM 37.7000 -122.4500 133° Southeast 251 289 11,000  Level Northern Cal TRACON
Mon 03:56:26 PM 37.6333 -122.4000 149° Southeast 257 296 11,000 -350 Level Northern Cal TRACON
Mon 03:57:26 PM 37.5833 -122.3500 142° Southeast 253 291 10,300 -1,150 Descending Northern Cal TRACON
Mon 03:58:26 PM 37.5167 -122.3000 149° Southeast 247 284 8,700 -1,550 Descending Northern Cal TRACON
Mon 03:59:26 PM 37.4833 -122.2500 130° Southeast 251 289 7,200 -1,429 Descending Northern Cal TRACON
Mon 04:00:32 PM 37.4500 -122.1500 113° Southeast 244 281 5,700 -1,400 Descending Northern Cal TRACON
Mon 04:01:26 PM 37.4500 -122.0833 90° East 254 292 4,400 -895 Descending Northern Cal TRACON
Mon 04:02:26 PM 37.5000 -122.1000 345° North 205 236 4,000 -200 Descending Northern Cal TRACON
Mon 04:03:26 PM 37.5333 -122.1667 302° West 196 226 4,000 -694 Level Northern Cal TRACON
Mon 04:04:27 PM 37.5500 -122.2167 293° West 168 193 2,600 -1,091 Descending Northern Cal TRACON
Mon 04:05:27 PM 37.5667 -122.2667 293° West 155 178 1,800 -864 Descending Northern Cal TRACON
Mon 04:06:32 PM 37.6000 -122.3167 310° West 118 136 800 -750 Descending Northern Cal TRACON
Mon 04:07:27 PM 37.6000 -122.3500 270° West 121 139 300 -545 Descending Northern Cal TRACON

Login

Don't have an account? Register now (free) for customized features, flight alerts, and more!